Villa Clarita, Puerto Rico
Current Conditions -  °F | °C
As of 10:53 PM on Wednesday 22 Oct 2014 (Local Time) from TJNR Reporting Station
Few Clouds Few Clouds  
Wind Chill: 28°   Ceiling: Unl
Heat Index: 31°   Visibility: 10mi
Dew Point: 23°   Wind: 5mph
Humidity: 74%   Direction: 90°E
Pressure: 29.99"   Gusts: NA
Location:  18.3304°N, 65.6573°W
Report Text: TJNR 230253Z AUTO 09004KT 10SM FEW065 28/23 A2999 RMK AO2 SLP155 T02780228 51011
Loading
Personal Weather Stations






























Interactive Weather Map
Tropical Storm Tracking
New forecast layout! Learn more

10-Day Weather Forecast

Advertisements
Track Severe Weather on mobile